sensor_id;sensor_type;location;lat;lon;timestamp;P1;durP1;ratioP1;P2;durP2;ratioP2
16314;SDS011;8266;52.150;4.768;2022-09-09T00:00:25;4.30;;;1.42;;
16314;SDS011;8266;52.150;4.768;2022-09-09T00:02:58;3.03;;;1.73;;
16314;SDS011;8266;52.150;4.768;2022-09-09T00:05:36;1.73;;;1.50;;
16314;SDS011;8266;52.150;4.768;2022-09-09T00:08:11;2.63;;;1.70;;
16314;SDS011;8266;52.150;4.768;2022-09-09T00:10:44;1.73;;;1.40;;
16314;SDS011;8266;52.150;4.768;2022-09-09T00:13:15;1.77;;;1.52;;
16314;SDS011;8266;52.150;4.768;2022-09-09T00:15:52;2.60;;;1.58;;
16314;SDS011;8266;52.150;4.768;2022-09-09T00:18:27;2.42;;;1.52;;
16314;SDS011;8266;52.150;4.768;2022-09-09T00:21:05;3.40;;;1.85;;
16314;SDS011;8266;52.150;4.768;2022-09-09T00:23:34;2.47;;;1.77;;
16314;SDS011;8266;52.150;4.768;2022-09-09T00:26:05;3.13;;;2.08;;
16314;SDS011;8266;52.150;4.768;2022-09-09T00:28:41;2.72;;;2.25;;
16314;SDS011;8266;52.150;4.768;2022-09-09T00:31:16;3.72;;;2.20;;
16314;SDS011;8266;52.150;4.768;2022-09-09T00:33:48;3.10;;;2.17;;
16314;SDS011;8266;52.150;4.768;2022-09-09T00:36:20;2.40;;;2.20;;
16314;SDS011;8266;52.150;4.768;2022-09-09T00:38:51;2.92;;;2.30;;
16314;SDS011;8266;52.150;4.768;2022-09-09T00:41:22;4.85;;;2.67;;
16314;SDS011;8266;52.150;4.768;2022-09-09T00:43:56;4.80;;;2.88;;
16314;SDS011;8266;52.150;4.768;2022-09-09T00:46:46;2.65;;;2.40;;
16314;SDS011;8266;52.150;4.768;2022-09-09T00:49:25;3.35;;;2.78;;
16314;SDS011;8266;52.150;4.768;2022-09-09T00:52:05;4.22;;;2.42;;
16314;SDS011;8266;52.150;4.768;2022-09-09T00:54:45;3.53;;;2.55;;
16314;SDS011;8266;52.150;4.768;2022-09-09T00:57:23;3.53;;;2.72;;
16314;SDS011;8266;52.150;4.768;2022-09-09T00:59:56;5.13;;;3.30;;
16314;SDS011;8266;52.150;4.768;2022-09-09T01:02:31;3.20;;;2.63;;
16314;SDS011;8266;52.150;4.768;2022-09-09T01:05:07;3.17;;;2.70;;
16314;SDS011;8266;52.150;4.768;2022-09-09T01:07:41;5.18;;;2.85;;
16314;SDS011;8266;52.150;4.768;2022-09-09T01:10:15;2.95;;;2.63;;
16314;SDS011;8266;52.150;4.768;2022-09-09T01:12:52;4.82;;;3.22;;
16314;SDS011;8266;52.150;4.768;2022-09-09T01:15:26;4.63;;;3.25;;
16314;SDS011;8266;52.150;4.768;2022-09-09T01:17:58;3.72;;;2.75;;
16314;SDS011;8266;52.150;4.768;2022-09-09T01:20:31;5.18;;;3.30;;
16314;SDS011;8266;52.150;4.768;2022-09-09T01:23:14;3.05;;;2.53;;
16314;SDS011;8266;52.150;4.768;2022-09-09T01:26:07;5.75;;;3.05;;
16314;SDS011;8266;52.150;4.768;2022-09-09T01:28:45;3.55;;;2.80;;
16314;SDS011;8266;52.150;4.768;2022-09-09T01:31:15;3.60;;;3.30;;
16314;SDS011;8266;52.150;4.768;2022-09-09T01:33:45;3.45;;;3.00;;
16314;SDS011;8266;52.150;4.768;2022-09-09T01:36:13;3.20;;;2.92;;
16314;SDS011;8266;52.150;4.768;2022-09-09T01:38:46;3.38;;;2.85;;
16314;SDS011;8266;52.150;4.768;2022-09-09T01:41:14;7.15;;;2.80;;
16314;SDS011;8266;52.150;4.768;2022-09-09T01:43:42;3.30;;;2.80;;
16314;SDS011;8266;52.150;4.768;2022-09-09T01:46:09;3.42;;;2.50;;
16314;SDS011;8266;52.150;4.768;2022-09-09T01:48:38;4.07;;;2.38;;
16314;SDS011;8266;52.150;4.768;2022-09-09T01:51:07;3.70;;;2.22;;
16314;SDS011;8266;52.150;4.768;2022-09-09T01:53:35;3.72;;;2.75;;
16314;SDS011;8266;52.150;4.768;2022-09-09T01:56:07;2.33;;;2.13;;
16314;SDS011;8266;52.150;4.768;2022-09-09T01:58:46;2.80;;;2.00;;
16314;SDS011;8266;52.150;4.768;2022-09-09T02:01:24;4.05;;;2.50;;
16314;SDS011;8266;52.150;4.768;2022-09-09T02:04:00;2.85;;;2.58;;
16314;SDS011;8266;52.150;4.768;2022-09-09T02:06:31;3.25;;;2.60;;
16314;SDS011;8266;52.150;4.768;2022-09-09T02:09:03;2.70;;;2.42;;
16314;SDS011;8266;52.150;4.768;2022-09-09T02:11:32;5.65;;;2.63;;
16314;SDS011;8266;52.150;4.768;2022-09-09T02:14:03;4.20;;;2.83;;
16314;SDS011;8266;52.150;4.768;2022-09-09T02:16:34;3.83;;;2.80;;
16314;SDS011;8266;52.150;4.768;2022-09-09T02:19:07;2.53;;;2.33;;
16314;SDS011;8266;52.150;4.768;2022-09-09T02:21:38;2.97;;;2.58;;
16314;SDS011;8266;52.150;4.768;2022-09-09T02:24:08;4.18;;;2.25;;
16314;SDS011;8266;52.150;4.768;2022-09-09T02:26:37;3.08;;;2.60;;
16314;SDS011;8266;52.150;4.768;2022-09-09T02:29:08;4.05;;;2.90;;
16314;SDS011;8266;52.150;4.768;2022-09-09T02:31:40;4.72;;;2.58;;
16314;SDS011;8266;52.150;4.768;2022-09-09T02:34:10;5.38;;;2.88;;
16314;SDS011;8266;52.150;4.768;2022-09-09T02:36:40;3.45;;;3.05;;
16314;SDS011;8266;52.150;4.768;2022-09-09T02:39:10;4.55;;;2.97;;
16314;SDS011;8266;52.150;4.768;2022-09-09T02:41:39;4.03;;;2.95;;
16314;SDS011;8266;52.150;4.768;2022-09-09T02:44:10;3.88;;;2.95;;
16314;SDS011;8266;52.150;4.768;2022-09-09T02:49:43;3.72;;;3.30;;
16314;SDS011;8266;52.150;4.768;2022-09-09T02:52:23;5.57;;;3.20;;
16314;SDS011;8266;52.150;4.768;2022-09-09T02:54:57;4.78;;;3.17;;
16314;SDS011;8266;52.150;4.768;2022-09-09T02:57:32;4.55;;;3.30;;
16314;SDS011;8266;52.150;4.768;2022-09-09T03:00:02;4.47;;;3.20;;
16314;SDS011;8266;52.150;4.768;2022-09-09T03:02:30;4.25;;;3.33;;
16314;SDS011;8266;52.150;4.768;2022-09-09T03:04:57;3.33;;;3.03;;
16314;SDS011;8266;52.150;4.768;2022-09-09T03:07:24;4.18;;;3.33;;
16314;SDS011;8266;52.150;4.768;2022-09-09T03:09:52;3.70;;;3.15;;
16314;SDS011;8266;52.150;4.768;2022-09-09T03:12:20;5.22;;;3.60;;
16314;SDS011;8266;52.150;4.768;2022-09-09T03:14:46;3.47;;;3.15;;
16314;SDS011;8266;52.150;4.768;2022-09-09T03:17:15;4.53;;;3.05;;
16314;SDS011;8266;52.150;4.768;2022-09-09T03:19:42;5.03;;;3.40;;
16314;SDS011;8266;52.150;4.768;2022-09-09T03:22:09;3.60;;;3.30;;
16314;SDS011;8266;52.150;4.768;2022-09-09T03:24:38;4.10;;;3.60;;
16314;SDS011;8266;52.150;4.768;2022-09-09T03:27:05;4.20;;;3.22;;
16314;SDS011;8266;52.150;4.768;2022-09-09T03:29:32;6.07;;;3.78;;
16314;SDS011;8266;52.150;4.768;2022-09-09T03:31:59;3.60;;;3.30;;
16314;SDS011;8266;52.150;4.768;2022-09-09T03:34:27;4.53;;;3.97;;
16314;SDS011;8266;52.150;4.768;2022-09-09T03:36:54;4.85;;;3.65;;
16314;SDS011;8266;52.150;4.768;2022-09-09T03:39:21;4.32;;;3.92;;
16314;SDS011;8266;52.150;4.768;2022-09-09T03:41:48;4.65;;;4.22;;
16314;SDS011;8266;52.150;4.768;2022-09-09T03:44:15;4.93;;;4.05;;
16314;SDS011;8266;52.150;4.768;2022-09-09T03:46:42;4.65;;;4.00;;
16314;SDS011;8266;52.150;4.768;2022-09-09T03:49:09;5.50;;;3.83;;
16314;SDS011;8266;52.150;4.768;2022-09-09T03:51:37;5.10;;;3.72;;
16314;SDS011;8266;52.150;4.768;2022-09-09T03:54:05;5.03;;;3.97;;
16314;SDS011;8266;52.150;4.768;2022-09-09T03:56:33;3.95;;;3.65;;
16314;SDS011;8266;52.150;4.768;2022-09-09T03:59:02;5.18;;;3.70;;
16314;SDS011;8266;52.150;4.768;2022-09-09T04:01:29;8.25;;;4.18;;
16314;SDS011;8266;52.150;4.768;2022-09-09T04:03:56;5.85;;;3.60;;
16314;SDS011;8266;52.150;4.768;2022-09-09T04:06:24;5.43;;;3.42;;
16314;SDS011;8266;52.150;4.768;2022-09-09T04:08:54;7.05;;;3.67;;
16314;SDS011;8266;52.150;4.768;2022-09-09T04:11:22;4.00;;;3.10;;
16314;SDS011;8266;52.150;4.768;2022-09-09T04:13:49;5.95;;;3.33;;
16314;SDS011;8266;52.150;4.768;2022-09-09T04:16:16;4.10;;;3.42;;
16314;SDS011;8266;52.150;4.768;2022-09-09T04:18:46;3.55;;;3.25;;
16314;SDS011;8266;52.150;4.768;2022-09-09T04:21:13;5.90;;;3.53;;
16314;SDS011;8266;52.150;4.768;2022-09-09T04:23:41;4.72;;;3.10;;
16314;SDS011;8266;52.150;4.768;2022-09-09T04:26:09;5.47;;;2.97;;
16314;SDS011;8266;52.150;4.768;2022-09-09T04:28:36;4.00;;;3.20;;
16314;SDS011;8266;52.150;4.768;2022-09-09T04:31:04;4.75;;;3.00;;
16314;SDS011;8266;52.150;4.768;2022-09-09T04:33:32;3.17;;;2.90;;
16314;SDS011;8266;52.150;4.768;2022-09-09T04:36:00;3.78;;;3.15;;
16314;SDS011;8266;52.150;4.768;2022-09-09T04:38:27;5.30;;;3.15;;
16314;SDS011;8266;52.150;4.768;2022-09-09T04:40:54;3.53;;;3.20;;
16314;SDS011;8266;52.150;4.768;2022-09-09T04:43:24;3.53;;;2.95;;
16314;SDS011;8266;52.150;4.768;2022-09-09T04:45:52;3.33;;;3.03;;
16314;SDS011;8266;52.150;4.768;2022-09-09T04:48:19;4.18;;;2.42;;
16314;SDS011;8266;52.150;4.768;2022-09-09T04:50:53;3.50;;;2.92;;
16314;SDS011;8266;52.150;4.768;2022-09-09T04:53:24;6.70;;;3.50;;
16314;SDS011;8266;52.150;4.768;2022-09-09T04:55:52;3.22;;;2.70;;
16314;SDS011;8266;52.150;4.768;2022-09-09T04:58:19;4.63;;;2.25;;
16314;SDS011;8266;52.150;4.768;2022-09-09T05:00:48;4.72;;;2.30;;
16314;SDS011;8266;52.150;4.768;2022-09-09T05:03:16;3.92;;;2.58;;
16314;SDS011;8266;52.150;4.768;2022-09-09T05:05:44;3.35;;;2.40;;
16314;SDS011;8266;52.150;4.768;2022-09-09T05:08:11;4.78;;;2.40;;
16314;SDS011;8266;52.150;4.768;2022-09-09T05:10:38;4.85;;;2.45;;
16314;SDS011;8266;52.150;4.768;2022-09-09T05:13:07;3.15;;;2.85;;
16314;SDS011;8266;52.150;4.768;2022-09-09T05:15:34;2.42;;;2.17;;
16314;SDS011;8266;52.150;4.768;2022-09-09T05:18:02;3.55;;;2.38;;
16314;SDS011;8266;52.150;4.768;2022-09-09T05:20:29;4.72;;;1.92;;
16314;SDS011;8266;52.150;4.768;2022-09-09T05:22:57;4.35;;;2.30;;
16314;SDS011;8266;52.150;4.768;2022-09-09T05:25:24;3.42;;;2.25;;
16314;SDS011;8266;52.150;4.768;2022-09-09T05:27:51;3.08;;;2.40;;
16314;SDS011;8266;52.150;4.768;2022-09-09T05:30:19;3.25;;;2.10;;
16314;SDS011;8266;52.150;4.768;2022-09-09T05:32:47;3.55;;;2.40;;
16314;SDS011;8266;52.150;4.768;2022-09-09T05:35:15;2.65;;;2.30;;
16314;SDS011;8266;52.150;4.768;2022-09-09T05:37:44;4.47;;;2.17;;
16314;SDS011;8266;52.150;4.768;2022-09-09T05:40:11;5.57;;;2.50;;
16314;SDS011;8266;52.150;4.768;2022-09-09T05:42:38;3.97;;;2.42;;
16314;SDS011;8266;52.150;4.768;2022-09-09T05:45:06;3.78;;;2.28;;
16314;SDS011;8266;52.150;4.768;2022-09-09T05:47:33;5.53;;;2.30;;
16314;SDS011;8266;52.150;4.768;2022-09-09T05:50:02;3.35;;;2.08;;
16314;SDS011;8266;52.150;4.768;2022-09-09T05:52:31;2.97;;;1.90;;
16314;SDS011;8266;52.150;4.768;2022-09-09T05:54:58;4.53;;;2.40;;
16314;SDS011;8266;52.150;4.768;2022-09-09T05:57:25;3.65;;;2.00;;
16314;SDS011;8266;52.150;4.768;2022-09-09T05:59:52;3.80;;;2.05;;
16314;SDS011;8266;52.150;4.768;2022-09-09T06:02:19;4.25;;;1.80;;
16314;SDS011;8266;52.150;4.768;2022-09-09T06:04:46;2.97;;;1.88;;
16314;SDS011;8266;52.150;4.768;2022-09-09T06:07:13;3.72;;;2.10;;
16314;SDS011;8266;52.150;4.768;2022-09-09T06:09:42;6.32;;;2.05;;
16314;SDS011;8266;52.150;4.768;2022-09-09T06:12:08;3.50;;;2.25;;
16314;SDS011;8266;52.150;4.768;2022-09-09T06:14:35;2.05;;;1.65;;
16314;SDS011;8266;52.150;4.768;2022-09-09T06:17:03;4.38;;;1.88;;
16314;SDS011;8266;52.150;4.768;2022-09-09T06:19:30;5.82;;;1.90;;
16314;SDS011;8266;52.150;4.768;2022-09-09T06:21:57;3.58;;;1.73;;
16314;SDS011;8266;52.150;4.768;2022-09-09T06:24:24;2.33;;;1.48;;
16314;SDS011;8266;52.150;4.768;2022-09-09T06:26:53;4.45;;;1.90;;
16314;SDS011;8266;52.150;4.768;2022-09-09T06:29:20;3.50;;;1.67;;
16314;SDS011;8266;52.150;4.768;2022-09-09T06:31:47;6.75;;;2.08;;
16314;SDS011;8266;52.150;4.768;2022-09-09T06:34:14;4.75;;;2.08;;
16314;SDS011;8266;52.150;4.768;2022-09-09T06:36:41;4.03;;;1.65;;
16314;SDS011;8266;52.150;4.768;2022-09-09T06:39:08;4.18;;;1.70;;
16314;SDS011;8266;52.150;4.768;2022-09-09T06:41:36;4.65;;;1.70;;
16314;SDS011;8266;52.150;4.768;2022-09-09T06:44:06;5.18;;;1.40;;
16314;SDS011;8266;52.150;4.768;2022-09-09T06:46:34;3.83;;;1.65;;
16314;SDS011;8266;52.150;4.768;2022-09-09T06:49:07;3.35;;;1.40;;
16314;SDS011;8266;52.150;4.768;2022-09-09T06:51:39;4.40;;;1.40;;
16314;SDS011;8266;52.150;4.768;2022-09-09T06:54:07;5.30;;;1.85;;
16314;SDS011;8266;52.150;4.768;2022-09-09T06:56:35;6.40;;;1.38;;
16314;SDS011;8266;52.150;4.768;2022-09-09T06:59:07;4.68;;;1.83;;
16314;SDS011;8266;52.150;4.768;2022-09-09T07:01:36;3.45;;;1.33;;
16314;SDS011;8266;52.150;4.768;2022-09-09T07:04:13;4.25;;;1.65;;
16314;SDS011;8266;52.150;4.768;2022-09-09T07:06:45;4.45;;;1.80;;
16314;SDS011;8266;52.150;4.768;2022-09-09T07:09:17;5.32;;;1.75;;
16314;SDS011;8266;52.150;4.768;2022-09-09T07:11:45;5.47;;;1.90;;
16314;SDS011;8266;52.150;4.768;2022-09-09T07:14:14;4.68;;;1.95;;
16314;SDS011;8266;52.150;4.768;2022-09-09T07:16:41;6.55;;;2.55;;
16314;SDS011;8266;52.150;4.768;2022-09-09T07:19:09;4.65;;;2.15;;
16314;SDS011;8266;52.150;4.768;2022-09-09T07:21:37;3.10;;;2.05;;
16314;SDS011;8266;52.150;4.768;2022-09-09T07:24:05;6.65;;;2.50;;
16314;SDS011;8266;52.150;4.768;2022-09-09T07:26:35;5.57;;;2.30;;
16314;SDS011;8266;52.150;4.768;2022-09-09T07:29:03;3.50;;;1.70;;
16314;SDS011;8266;52.150;4.768;2022-09-09T07:31:36;3.88;;;2.17;;
16314;SDS011;8266;52.150;4.768;2022-09-09T07:34:05;4.10;;;2.17;;
16314;SDS011;8266;52.150;4.768;2022-09-09T07:36:33;6.35;;;2.92;;
16314;SDS011;8266;52.150;4.768;2022-09-09T07:39:02;5.45;;;2.45;;
16314;SDS011;8266;52.150;4.768;2022-09-09T07:41:31;4.40;;;2.20;;
16314;SDS011;8266;52.150;4.768;2022-09-09T07:44:03;4.57;;;2.00;;
16314;SDS011;8266;52.150;4.768;2022-09-09T07:46:35;2.92;;;1.88;;
16314;SDS011;8266;52.150;4.768;2022-09-09T07:49:04;4.00;;;2.20;;
16314;SDS011;8266;52.150;4.768;2022-09-09T07:51:32;4.95;;;2.30;;
16314;SDS011;8266;52.150;4.768;2022-09-09T07:54:01;3.53;;;2.00;;
16314;SDS011;8266;52.150;4.768;2022-09-09T07:56:29;5.47;;;2.15;;
16314;SDS011;8266;52.150;4.768;2022-09-09T07:58:57;6.45;;;2.60;;
16314;SDS011;8266;52.150;4.768;2022-09-09T08:01:29;5.95;;;2.25;;
16314;SDS011;8266;52.150;4.768;2022-09-09T08:04:00;3.45;;;2.08;;
16314;SDS011;8266;52.150;4.768;2022-09-09T08:06:28;4.43;;;2.33;;
16314;SDS011;8266;52.150;4.768;2022-09-09T08:08:57;4.90;;;2.05;;
16314;SDS011;8266;52.150;4.768;2022-09-09T08:11:25;6.65;;;2.50;;
16314;SDS011;8266;52.150;4.768;2022-09-09T08:13:53;4.80;;;2.67;;
16314;SDS011;8266;52.150;4.768;2022-09-09T08:16:23;5.18;;;2.35;;
16314;SDS011;8266;52.150;4.768;2022-09-09T08:18:51;5.47;;;2.60;;
16314;SDS011;8266;52.150;4.768;2022-09-09T08:21:21;5.38;;;2.45;;
16314;SDS011;8266;52.150;4.768;2022-09-09T08:23:50;4.80;;;2.03;;
16314;SDS011;8266;52.150;4.768;2022-09-09T08:26:19;7.15;;;2.17;;
16314;SDS011;8266;52.150;4.768;2022-09-09T08:28:48;5.00;;;2.05;;
16314;SDS011;8266;52.150;4.768;2022-09-09T08:31:17;4.97;;;2.42;;
16314;SDS011;8266;52.150;4.768;2022-09-09T08:33:45;4.05;;;2.10;;
16314;SDS011;8266;52.150;4.768;2022-09-09T08:36:14;5.30;;;2.40;;
16314;SDS011;8266;52.150;4.768;2022-09-09T08:38:47;6.03;;;2.50;;
16314;SDS011;8266;52.150;4.768;2022-09-09T08:41:29;6.28;;;2.60;;
16314;SDS011;8266;52.150;4.768;2022-09-09T08:44:14;4.50;;;2.13;;
16314;SDS011;8266;52.150;4.768;2022-09-09T08:46:47;6.80;;;2.97;;
16314;SDS011;8266;52.150;4.768;2022-09-09T08:49:31;5.18;;;2.30;;
16314;SDS011;8266;52.150;4.768;2022-09-09T08:52:12;6.15;;;2.80;;
16314;SDS011;8266;52.150;4.768;2022-09-09T08:54:45;4.93;;;2.40;;
16314;SDS011;8266;52.150;4.768;2022-09-09T08:57:14;4.35;;;2.22;;
16314;SDS011;8266;52.150;4.768;2022-09-09T08:59:46;6.15;;;2.92;;
16314;SDS011;8266;52.150;4.768;2022-09-09T09:02:18;6.03;;;2.90;;
16314;SDS011;8266;52.150;4.768;2022-09-09T09:04:52;5.35;;;2.20;;
16314;SDS011;8266;52.150;4.768;2022-09-09T09:07:31;6.28;;;2.53;;
16314;SDS011;8266;52.150;4.768;2022-09-09T09:10:08;6.68;;;2.30;;
16314;SDS011;8266;52.150;4.768;2022-09-09T09:12:43;2.78;;;1.70;;
16314;SDS011;8266;52.150;4.768;2022-09-09T09:15:14;7.07;;;2.00;;
16314;SDS011;8266;52.150;4.768;2022-09-09T09:17:46;3.97;;;1.92;;
16314;SDS011;8266;52.150;4.768;2022-09-09T09:20:14;5.35;;;1.95;;
16314;SDS011;8266;52.150;4.768;2022-09-09T09:22:44;5.00;;;1.90;;
16314;SDS011;8266;52.150;4.768;2022-09-09T09:25:17;5.95;;;1.98;;
16314;SDS011;8266;52.150;4.768;2022-09-09T09:27:49;5.45;;;1.90;;
16314;SDS011;8266;52.150;4.768;2022-09-09T09:30:31;5.72;;;2.42;;
16314;SDS011;8266;52.150;4.768;2022-09-09T09:33:04;3.65;;;1.80;;
16314;SDS011;8266;52.150;4.768;2022-09-09T09:35:59;4.90;;;2.00;;
16314;SDS011;8266;52.150;4.768;2022-09-09T09:38:27;3.97;;;1.58;;
16314;SDS011;8266;52.150;4.768;2022-09-09T09:40:56;5.68;;;1.90;;
16314;SDS011;8266;52.150;4.768;2022-09-09T09:43:26;2.80;;;1.65;;
16314;SDS011;8266;52.150;4.768;2022-09-09T09:45:55;4.68;;;1.95;;
16314;SDS011;8266;52.150;4.768;2022-09-09T09:48:24;5.68;;;1.60;;
16314;SDS011;8266;52.150;4.768;2022-09-09T09:50:53;6.40;;;1.83;;
16314;SDS011;8266;52.150;4.768;2022-09-09T09:53:23;5.85;;;1.55;;
16314;SDS011;8266;52.150;4.768;2022-09-09T09:55:54;4.50;;;2.00;;
16314;SDS011;8266;52.150;4.768;2022-09-09T09:58:24;4.28;;;1.50;;
16314;SDS011;8266;52.150;4.768;2022-09-09T10:00:55;4.70;;;1.80;;
16314;SDS011;8266;52.150;4.768;2022-09-09T10:03:23;5.13;;;1.80;;
16314;SDS011;8266;52.150;4.768;2022-09-09T10:05:52;4.78;;;1.65;;
16314;SDS011;8266;52.150;4.768;2022-09-09T10:08:21;3.08;;;1.55;;
16314;SDS011;8266;52.150;4.768;2022-09-09T10:10:55;4.45;;;1.98;;
16314;SDS011;8266;52.150;4.768;2022-09-09T10:13:45;3.65;;;1.60;;
16314;SDS011;8266;52.150;4.768;2022-09-09T10:16:23;3.17;;;1.40;;
16314;SDS011;8266;52.150;4.768;2022-09-09T10:18:58;4.47;;;1.80;;
16314;SDS011;8266;52.150;4.768;2022-09-09T10:27:42;4.45;;;1.52;;
16314;SDS011;8266;52.150;4.768;2022-09-09T10:30:19;4.43;;;2.20;;
16314;SDS011;8266;52.150;4.768;2022-09-09T10:32:49;3.97;;;1.42;;
16314;SDS011;8266;52.150;4.768;2022-09-09T10:35:27;5.10;;;1.60;;
16314;SDS011;8266;52.150;4.768;2022-09-09T10:38:04;5.28;;;1.35;;
16314;SDS011;8266;52.150;4.768;2022-09-09T10:40:40;3.75;;;1.52;;
16314;SDS011;8266;52.150;4.768;2022-09-09T10:43:29;4.78;;;1.48;;
16314;SDS011;8266;52.150;4.768;2022-09-09T10:46:09;3.97;;;1.52;;
16314;SDS011;8266;52.150;4.768;2022-09-09T10:48:44;3.42;;;1.77;;
16314;SDS011;8266;52.150;4.768;2022-09-09T10:51:28;4.03;;;1.38;;
16314;SDS011;8266;52.150;4.768;2022-09-09T10:54:13;4.75;;;1.70;;
16314;SDS011;8266;52.150;4.768;2022-09-09T10:56:51;2.50;;;1.20;;
16314;SDS011;8266;52.150;4.768;2022-09-09T10:59:25;4.00;;;1.25;;
16314;SDS011;8266;52.150;4.768;2022-09-09T11:01:59;2.05;;;1.13;;
16314;SDS011;8266;52.150;4.768;2022-09-09T11:04:32;2.47;;;1.17;;
16314;SDS011;8266;52.150;4.768;2022-09-09T11:07:06;2.50;;;1.02;;
16314;SDS011;8266;52.150;4.768;2022-09-09T11:09:49;2.55;;;1.20;;
16314;SDS011;8266;52.150;4.768;2022-09-09T11:12:22;2.90;;;1.33;;
16314;SDS011;8266;52.150;4.768;2022-09-09T11:14:53;3.90;;;1.30;;
16314;SDS011;8266;52.150;4.768;2022-09-09T11:17:26;2.92;;;1.33;;
16314;SDS011;8266;52.150;4.768;2022-09-09T11:19:59;4.47;;;1.83;;
16314;SDS011;8266;52.150;4.768;2022-09-09T11:22:27;3.03;;;1.13;;
16314;SDS011;8266;52.150;4.768;2022-09-09T11:24:59;3.60;;;1.23;;
16314;SDS011;8266;52.150;4.768;2022-09-09T11:27:33;3.45;;;1.00;;
16314;SDS011;8266;52.150;4.768;2022-09-09T11:30:19;3.45;;;1.10;;
16314;SDS011;8266;52.150;4.768;2022-09-09T11:36:03;3.85;;;1.42;;
16314;SDS011;8266;52.150;4.768;2022-09-09T11:38:52;1.77;;;0.90;;
16314;SDS011;8266;52.150;4.768;2022-09-09T11:41:23;2.22;;;1.00;;
16314;SDS011;8266;52.150;4.768;2022-09-09T11:43:59;3.42;;;1.40;;
16314;SDS011;8266;52.150;4.768;2022-09-09T11:46:36;4.70;;;1.10;;
16314;SDS011;8266;52.150;4.768;2022-09-09T11:49:21;2.17;;;1.17;;
16314;SDS011;8266;52.150;4.768;2022-09-09T11:51:54;2.50;;;1.40;;
16314;SDS011;8266;52.150;4.768;2022-09-09T11:54:27;2.15;;;1.10;;
16314;SDS011;8266;52.150;4.768;2022-09-09T11:56:56;3.72;;;1.38;;
16314;SDS011;8266;52.150;4.768;2022-09-09T11:59:24;4.47;;;1.45;;
16314;SDS011;8266;52.150;4.768;2022-09-09T12:01:55;1.73;;;1.40;;
16314;SDS011;8266;52.150;4.768;2022-09-09T12:04:29;2.40;;;1.30;;
16314;SDS011;8266;52.150;4.768;2022-09-09T12:07:04;2.67;;;1.50;;
16314;SDS011;8266;52.150;4.768;2022-09-09T12:09:50;2.95;;;1.50;;
16314;SDS011;8266;52.150;4.768;2022-09-09T12:12:26;2.97;;;1.30;;
16314;SDS011;8266;52.150;4.768;2022-09-09T12:14:58;2.67;;;1.50;;
16314;SDS011;8266;52.150;4.768;2022-09-09T12:17:46;3.15;;;1.48;;
16314;SDS011;8266;52.150;4.768;2022-09-09T12:20:17;2.25;;;1.25;;
16314;SDS011;8266;52.150;4.768;2022-09-09T12:22:59;3.17;;;1.40;;
16314;SDS011;8266;52.150;4.768;2022-09-09T12:25:52;3.40;;;1.55;;
16314;SDS011;8266;52.150;4.768;2022-09-09T12:28:26;3.55;;;1.45;;
16314;SDS011;8266;52.150;4.768;2022-09-09T12:31:06;5.05;;;1.63;;
16314;SDS011;8266;52.150;4.768;2022-09-09T12:33:42;4.20;;;2.00;;
16314;SDS011;8266;52.150;4.768;2022-09-09T12:36:13;3.20;;;1.83;;
16314;SDS011;8266;52.150;4.768;2022-09-09T12:38:44;3.45;;;1.65;;
16314;SDS011;8266;52.150;4.768;2022-09-09T12:41:21;2.90;;;1.83;;
16314;SDS011;8266;52.150;4.768;2022-09-09T12:43:50;2.90;;;1.70;;
16314;SDS011;8266;52.150;4.768;2022-09-09T12:46:27;2.28;;;1.52;;
16314;SDS011;8266;52.150;4.768;2022-09-09T12:49:02;6.00;;;1.80;;
16314;SDS011;8266;52.150;4.768;2022-09-09T12:51:31;7.85;;;2.88;;
16314;SDS011;8266;52.150;4.768;2022-09-09T12:54:00;3.28;;;1.83;;
16314;SDS011;8266;52.150;4.768;2022-09-09T12:56:28;6.13;;;2.30;;
16314;SDS011;8266;52.150;4.768;2022-09-09T12:58:58;2.47;;;1.40;;
16314;SDS011;8266;52.150;4.768;2022-09-09T13:01:26;4.70;;;1.63;;
16314;SDS011;8266;52.150;4.768;2022-09-09T13:03:55;1.48;;;1.20;;
16314;SDS011;8266;52.150;4.768;2022-09-09T13:06:23;2.88;;;1.45;;
16314;SDS011;8266;52.150;4.768;2022-09-09T13:08:59;2.30;;;1.52;;
16314;SDS011;8266;52.150;4.768;2022-09-09T13:12:23;3.85;;;1.83;;
16314;SDS011;8266;52.150;4.768;2022-09-09T13:15:14;2.95;;;1.70;;
16314;SDS011;8266;52.150;4.768;2022-09-09T13:17:57;3.50;;;2.13;;
16314;SDS011;8266;52.150;4.768;2022-09-09T13:20:45;4.53;;;1.63;;
16314;SDS011;8266;52.150;4.768;2022-09-09T13:23:32;4.78;;;2.13;;
16314;SDS011;8266;52.150;4.768;2022-09-09T13:26:19;2.83;;;1.35;;
16314;SDS011;8266;52.150;4.768;2022-09-09T13:28:53;1.55;;;1.33;;
16314;SDS011;8266;52.150;4.768;2022-09-09T13:31:33;3.75;;;1.73;;
16314;SDS011;8266;52.150;4.768;2022-09-09T13:34:10;3.30;;;1.77;;
16314;SDS011;8266;52.150;4.768;2022-09-09T13:36:39;3.45;;;1.60;;
16314;SDS011;8266;52.150;4.768;2022-09-09T13:39:14;3.13;;;1.67;;
16314;SDS011;8266;52.150;4.768;2022-09-09T13:41:44;2.13;;;1.50;;
16314;SDS011;8266;52.150;4.768;2022-09-09T13:44:22;2.28;;;1.30;;
16314;SDS011;8266;52.150;4.768;2022-09-09T13:46:59;4.32;;;1.77;;
16314;SDS011;8266;52.150;4.768;2022-09-09T13:49:28;3.17;;;1.67;;
16314;SDS011;8266;52.150;4.768;2022-09-09T13:52:05;2.78;;;1.40;;
16314;SDS011;8266;52.150;4.768;2022-09-09T13:54:36;1.73;;;1.38;;
16314;SDS011;8266;52.150;4.768;2022-09-09T13:57:04;1.85;;;0.95;;
16314;SDS011;8266;52.150;4.768;2022-09-09T13:59:33;1.75;;;1.05;;
16314;SDS011;8266;52.150;4.768;2022-09-09T14:02:01;2.00;;;1.30;;
16314;SDS011;8266;52.150;4.768;2022-09-09T14:04:28;1.77;;;1.10;;
16314;SDS011;8266;52.150;4.768;2022-09-09T14:06:55;2.50;;;1.20;;
16314;SDS011;8266;52.150;4.768;2022-09-09T14:09:23;3.53;;;1.50;;
16314;SDS011;8266;52.150;4.768;2022-09-09T14:11:50;2.88;;;1.30;;
16314;SDS011;8266;52.150;4.768;2022-09-09T14:14:17;2.63;;;1.10;;
16314;SDS011;8266;52.150;4.768;2022-09-09T14:16:45;2.58;;;0.95;;
16314;SDS011;8266;52.150;4.768;2022-09-09T14:19:12;2.20;;;1.10;;
16314;SDS011;8266;52.150;4.768;2022-09-09T14:21:39;2.55;;;1.10;;
16314;SDS011;8266;52.150;4.768;2022-09-09T14:24:06;1.65;;;1.00;;
16314;SDS011;8266;52.150;4.768;2022-09-09T14:26:33;1.50;;;0.88;;
16314;SDS011;8266;52.150;4.768;2022-09-09T14:29:00;2.30;;;1.05;;
16314;SDS011;8266;52.150;4.768;2022-09-09T14:31:27;3.42;;;1.00;;
16314;SDS011;8266;52.150;4.768;2022-09-09T14:33:55;1.33;;;0.63;;
16314;SDS011;8266;52.150;4.768;2022-09-09T14:36:23;1.08;;;0.43;;
16314;SDS011;8266;52.150;4.768;2022-09-09T14:38:50;6.43;;;1.23;;
16314;SDS011;8266;52.150;4.768;2022-09-09T14:41:19;2.05;;;0.82;;
16314;SDS011;8266;52.150;4.768;2022-09-09T14:43:47;1.92;;;0.80;;
16314;SDS011;8266;52.150;4.768;2022-09-09T14:46:16;1.65;;;0.80;;
16314;SDS011;8266;52.150;4.768;2022-09-09T14:48:45;2.17;;;0.70;;
16314;SDS011;8266;52.150;4.768;2022-09-09T14:51:34;1.00;;;0.90;;
16314;SDS011;8266;52.150;4.768;2022-09-09T14:54:02;2.45;;;1.00;;
16314;SDS011;8266;52.150;4.768;2022-09-09T14:56:30;1.27;;;0.50;;
16314;SDS011;8266;52.150;4.768;2022-09-09T14:58:59;2.15;;;0.90;;
16314;SDS011;8266;52.150;4.768;2022-09-09T15:01:27;2.25;;;0.77;;
16314;SDS011;8266;52.150;4.768;2022-09-09T15:03:56;1.83;;;0.82;;
16314;SDS011;8266;52.150;4.768;2022-09-09T15:06:27;2.65;;;0.82;;
16314;SDS011;8266;52.150;4.768;2022-09-09T15:08:55;2.28;;;0.90;;
16314;SDS011;8266;52.150;4.768;2022-09-09T15:11:24;1.50;;;0.90;;
16314;SDS011;8266;52.150;4.768;2022-09-09T15:13:53;1.38;;;0.90;;
16314;SDS011;8266;52.150;4.768;2022-09-09T15:16:22;1.95;;;0.95;;
16314;SDS011;8266;52.150;4.768;2022-09-09T15:18:50;3.65;;;1.00;;
16314;SDS011;8266;52.150;4.768;2022-09-09T15:21:19;1.40;;;0.93;;
16314;SDS011;8266;52.150;4.768;2022-09-09T15:23:50;1.10;;;0.77;;
16314;SDS011;8266;52.150;4.768;2022-09-09T15:26:18;2.25;;;1.08;;
16314;SDS011;8266;52.150;4.768;2022-09-09T15:28:45;3.22;;;1.05;;
16314;SDS011;8266;52.150;4.768;2022-09-09T15:31:13;2.15;;;0.77;;
16314;SDS011;8266;52.150;4.768;2022-09-09T15:33:46;3.22;;;1.02;;
16314;SDS011;8266;52.150;4.768;2022-09-09T15:36:14;2.28;;;0.95;;
16314;SDS011;8266;52.150;4.768;2022-09-09T15:38:42;3.92;;;1.10;;